Carrier Princess — CZ3582 — position and weather

sailwx.info

Track history (hours):
 
Tides and Currents Weather Stations Pressure Air Temp Water Temp Dewpoint Dewpoint Depression Visibility Wind Speed Wind Dir Waves Ship Positions

Carrier Princess

Last reported at 2016-Jul-28 15:33 UTC. Time now 2016-Jul-28 16:30 UTC.
Position N 49°10' W 123°56'.

Length 112 m; draft 3 m.

Type: Cargo ship. MMSI: 316003656.

Date/timePositionNaut miles runAvg speedWind from/ knotsBaromVisibWave heightAir tempDewpointWater temp
2016-Jul-28 15:33N 49°10' W 123°56'0 0.0
2016-Jul-28 14:33N 49°10' W 123°56'0 0.0
2016-Jul-28 13:30N 49°10' W 123°56'0 0.0
2016-Jul-28 12:33N 49°10' W 123°56'0 0.0
2016-Jul-28 11:32N 49°10' W 123°56'7 6.9
2016-Jul-28 10:33N 49°13' W 123°47'1312.7
2016-Jul-28 09:32N 49°09' W 123°28'1211.8
2016-Jul-28 08:33N 49°07' W 123°11'6 5.4
2016-Jul-28 07:27N 49°09' W 123°02'0 0.0
2016-Jul-28 06:31N 49°09' W 123°02'9 8.6
2016-Jul-28 05:32N 49°07' W 123°15'1110.8
2016-Jul-28 04:30N 48°57' W 123°17'1412.1
2016-Jul-28 03:22N 48°44' W 123°24'2 1.0
2016-Jul-28 01:22N 48°42' W 123°24'1011.0
2016-Jul-28 00:25N 48°52' W 123°19'1314.4
2016-Jul-27 23:29N 49°05' W 123°19'1212.5
2016-Jul-27 22:33N 49°09' W 123°02'0 0.2
2016-Jul-27 21:33N 49°09' W 123°02'2 1.9
2016-Jul-27 20:33N 49°07' W 123°04'1110.9
2016-Jul-27 19:34N 49°06' W 123°21'1211.8
2016-Jul-27 18:34N 49°11' W 123°38'1111.1
2016-Jul-27 17:34N 49°10' W 123°55'1 0.7
2016-Jul-27 16:33N 49°10' W 123°56'0 0.0
2016-Jul-27 15:33N 49°10' W 123°56'0 0.0
2016-Jul-27 14:33N 49°10' W 123°56'0 0.0
2016-Jul-27 13:33N 49°10' W 123°56'0 0.0
2016-Jul-27 12:33N 49°10' W 123°56'0 0.0
2016-Jul-27 11:34N 49°10' W 123°56'7 7.2
2016-Jul-27 10:33N 49°13' W 123°46'1312.7
2016-Jul-27 09:33N 49°10' W 123°27'1312.7
2016-Jul-27 08:34N 49°06' W 123°09'5 4.7
2016-Jul-27 07:34N 49°09' W 123°02'0 0.1
2016-Jul-27 06:34N 49°09' W 123°02'1111.4
2016-Jul-27 05:33N 49°06' W 123°19'1211.6
2016-Jul-27 04:33N 48°54' W 123°18'1110.8
2016-Jul-27 03:33N 48°44' W 123°23'3 1.3
2016-Jul-27 01:28N 48°41' W 123°24'910.3
2016-Jul-27 00:33N 48°50' W 123°21'1312.6
2016-Jul-26 23:33N 49°03' W 123°19'1212.1
2016-Jul-26 22:34N 49°09' W 123°02'0 0.2
2016-Jul-26 21:33N 49°09' W 123°02'2 2.0
2016-Jul-26 20:33N 49°07' W 123°04'1110.5
2016-Jul-26 19:33N 49°06' W 123°20'1212.0
2016-Jul-26 18:33N 49°11' W 123°37'1111.1
2016-Jul-26 17:34N 49°10' W 123°54'1 1.0
2016-Jul-26 16:33N 49°10' W 123°56'0 0.0
2016-Jul-26 15:30N 49°10' W 123°56'0 0.0
2016-Jul-26 14:31N 49°10' W 123°56'0 0.0
2016-Jul-26 13:32N 49°10' W 123°56'0 0.0
2016-Jul-26 12:33N 49°10' W 123°56'0 0.0
2016-Jul-26 11:33N 49°10' W 123°56'6 5.6
2016-Jul-26 10:33N 49°13' W 123°49'1413.7
2016-Jul-26 09:33N 49°09' W 123°29'1413.6
2016-Jul-26 08:33N 49°07' W 123°09'5 4.8
2016-Jul-26 07:33N 49°09' W 123°02'0 0.1
2016-Jul-26 06:34N 49°09' W 123°02'1111.3
2016-Jul-26 05:34N 49°06' W 123°19'1211.9
2016-Jul-26 04:33N 48°54' W 123°18'1110.8
2016-Jul-26 03:34N 48°44' W 123°24'3 1.2
2016-Jul-26 01:26N 48°41' W 123°24'1011.9
2016-Jul-26 00:33N 48°52' W 123°21'1211.7
2016-Jul-25 23:33N 49°03' W 123°19'1212.3
2016-Jul-25 22:34N 49°09' W 123°02'0 0.1
2016-Jul-25 21:33N 49°09' W 123°02'0 0.0
2016-Jul-25 20:34N 49°09' W 123°02'0 0.0
2016-Jul-25 19:34N 49°09' W 123°02'0 0.0
2016-Jul-25 18:34N 49°09' W 123°02'0 0.0
2016-Jul-25 17:34N 49°09' W 123°02'0 0.0
2016-Jul-25 16:34N 49°09' W 123°02'0 0.0
2016-Jul-25 15:34N 49°09' W 123°02'0 0.0
2016-Jul-25 14:34N 49°09' W 123°02'0 0.0
2016-Jul-25 13:34N 49°09' W 123°02'0 0.0
2016-Jul-25 12:34N 49°09' W 123°02'0 0.0
2016-Jul-25 11:34N 49°09' W 123°02'0 0.0
2016-Jul-25 10:33N 49°09' W 123°02'0 0.0
2016-Jul-25 09:34N 49°09' W 123°02'0 0.0
2016-Jul-25 08:34N 49°09' W 123°02'0 0.0
2016-Jul-25 07:34N 49°09' W 123°02'0 0.0
2016-Jul-25 06:34N 49°09' W 123°02'0 0.0
2016-Jul-25 05:33N 49°09' W 123°02'0 0.0
2016-Jul-25 04:33N 49°09' W 123°02'0 0.0
2016-Jul-25 03:34N 49°09' W 123°02'0 0.0
2016-Jul-25 02:33N 49°09' W 123°02'0 0.0
2016-Jul-25 01:33N 49°09' W 123°02'0 0.0
2016-Jul-25 00:33N 49°09' W 123°02'0 0.0
2016-Jul-24 23:34N 49°09' W 123°02'0 0.0
2016-Jul-24 22:34N 49°09' W 123°02'0 0.0
2016-Jul-24 21:33N 49°09' W 123°02'0 0.0
2016-Jul-24 20:33N 49°09' W 123°02'0 0.0
2016-Jul-24 19:34N 49°09' W 123°02'0 0.0
2016-Jul-24 18:34N 49°09' W 123°02'0 0.0
2016-Jul-24 17:33N 49°09' W 123°02'0 0.0
2016-Jul-24 16:34N 49°09' W 123°02'0 0.0
2016-Jul-24 15:34N 49°09' W 123°02'1 1.4
2016-Jul-24 14:34N 49°08' W 123°04'10 9.6
2016-Jul-24 13:34N 49°06' W 123°18'1010.0
2016-Jul-24 12:34N 49°09' W 123°33'10 9.9
2016-Jul-24 11:34N 49°13' W 123°47'6 5.0
2016-Jul-24 10:16N 49°10' W 123°56'0 0.0
2016-Jul-24 09:31N 49°10' W 123°56'3 2.9
2016-Jul-24 08:34N 49°12' W 123°53'1110.6
2016-Jul-24 07:33N 49°11' W 123°37'1111.1
2016-Jul-24 06:33N 49°07' W 123°21'1010.4
2016-Jul-24 05:33N 49°07' W 123°05'3 2.8
2016-Jul-24 04:34N 49°09' W 123°02'0 0.0
2016-Jul-24 03:33N 49°09' W 123°02'0 0.0
2016-Jul-24 02:34N 49°09' W 123°02'0 0.0
2016-Jul-24 01:33N 49°09' W 123°02'0 0.0
2016-Jul-24 00:34N 49°09' W 123°02'0 0.0
2016-Jul-23 23:34N 49°09' W 123°02'4 4.3
2016-Jul-23 22:33N 49°06' W 123°08'8 7.6
2016-Jul-23 21:33N 49°06' W 123°19'1110.5
2016-Jul-23 20:33N 49°10' W 123°34'1010.5
2016-Jul-23 19:33N 49°13' W 123°50'5 4.7
2016-Jul-23 18:31N 49°10' W 123°56'0 0.0
2016-Jul-23 17:33N 49°10' W 123°56'0 0.0
2016-Jul-23 16:31N 49°10' W 123°56'0 0.0
2016-Jul-23 15:33N 49°10' W 123°56'0 0.0
2016-Jul-23 14:33N 49°10' W 123°56'0 0.0
2016-Jul-23 13:26N 49°10' W 123°56'0 0.0
2016-Jul-23 12:33N 49°10' W 123°56'0 0.0
2016-Jul-23 11:22N 49°10' W 123°56'6 6.9
2016-Jul-23 10:33N 49°13' W 123°49'1313.0
2016-Jul-23 09:33N 49°09' W 123°30'1212.1
2016-Jul-23 08:33N 49°07' W 123°12'6 6.4
2016-Jul-23 07:33N 49°09' W 123°02'0 0.0
2016-Jul-23 06:33N 49°09' W 123°02'16 8.2
2016-Jul-23 04:34N 48°56' W 123°18'1110.7
2016-Jul-23 03:33N 48°46' W 123°22'5 2.2
2016-Jul-23 01:30N 48°41' W 123°24'1111.1
2016-Jul-23 00:33N 48°52' W 123°21'1211.7
2016-Jul-22 23:33N 49°03' W 123°19'1212.2
2016-Jul-22 22:33N 49°09' W 123°02'0 0.2
2016-Jul-22 21:33N 49°09' W 123°02'1 0.9
2016-Jul-22 20:33N 49°08' W 123°03'9 8.8
2016-Jul-22 19:33N 49°07' W 123°17'1414.2
2016-Jul-22 18:34N 49°11' W 123°38'1211.8
2016-Jul-22 17:33N 49°10' W 123°56'0 0.0
2016-Jul-22 16:33N 49°10' W 123°56'0 0.0
2016-Jul-22 15:25N 49°10' W 123°56'0 0.0
2016-Jul-22 14:33N 49°10' W 123°56'0 0.0
2016-Jul-22 13:33N 49°10' W 123°56'0 0.0
2016-Jul-22 12:32N 49°10' W 123°56'0 0.0
2016-Jul-22 11:33N 49°10' W 123°56'4 4.4
2016-Jul-22 10:34N 49°13' W 123°51'1413.6
2016-Jul-22 09:33N 49°10' W 123°31'1313.1
2016-Jul-22 08:33N 49°07' W 123°11'6 6.1
2016-Jul-22 07:33N 49°09' W 123°02'10 4.9
2016-Jul-22 05:33N 49°07' W 123°17'1313.3
2016-Jul-22 04:33N 48°53' W 123°18'1211.6
2016-Jul-22 03:32N 48°42' W 123°24'1 0.5
2016-Jul-22 01:33N 48°41' W 123°24'1111.3
2016-Jul-22 00:33N 48°52' W 123°19'1413.8
2016-Jul-21 23:34N 49°06' W 123°20'1212.1
2016-Jul-21 22:33N 49°09' W 123°02'0 0.0
2016-Jul-21 21:33N 49°09' W 123°02'1 0.8
2016-Jul-21 20:33N 49°08' W 123°03'10 9.7
2016-Jul-21 19:33N 49°06' W 123°18'1413.7
2016-Jul-21 18:31N 49°11' W 123°38'11 9.0
2016-Jul-21 17:16N 49°10' W 123°56'0 0.0
2016-Jul-21 13:33N 49°10' W 123°56'5 1.6
2016-Jul-21 10:32N 49°13' W 123°50'1413.4
2016-Jul-21 09:31N 49°08' W 123°31'1313.5
2016-Jul-21 08:33N 49°07' W 123°11'6 2.8
2016-Jul-21 06:28N 49°09' W 123°02'1111.4
2016-Jul-21 05:31N 49°06' W 123°18'1212.0
2016-Jul-21 04:32N 48°54' W 123°18'1212.0
2016-Jul-21 03:32N 48°43' W 123°24'2 0.8
2016-Jul-21 01:27N 48°41' W 123°24'1111.1
2016-Jul-21 00:30N 48°52' W 123°21'1212.4
2016-Jul-20 23:33N 49°03' W 123°19'1212.1
2016-Jul-20 22:34N 49°08' W 123°03'0 0.5
2016-Jul-20 21:33N 49°09' W 123°02'1 1.2
2016-Jul-20 20:33N 49°08' W 123°04'10 9.6
2016-Jul-20 19:34N 49°06' W 123°18'1313.1
2016-Jul-20 18:33N 49°11' W 123°37'1212.3
2016-Jul-20 17:33N 49°10' W 123°56'0 0.1
2016-Jul-20 16:32N 49°10' W 123°56'0 0.0
2016-Jul-20 14:14N 49°10' W 123°56'0 0.0
2016-Jul-20 13:33N 49°10' W 123°56'0 0.0
2016-Jul-20 12:33N 49°10' W 123°56'0 0.0
2016-Jul-20 11:33N 49°10' W 123°56'5 4.9
2016-Jul-20 10:33N 49°13' W 123°50'1313.5
2016-Jul-20 09:34N 49°10' W 123°30'1313.4
2016-Jul-20 08:33N 49°07' W 123°10'6 5.6
2016-Jul-20 07:33N 49°09' W 123°02'0 0.0
2016-Jul-20 06:34N 49°09' W 123°02'9 9.1
2016-Jul-20 05:33N 49°07' W 123°16'1212.4
2016-Jul-20 04:33N 48°55' W 123°18'1212.1
2016-Jul-20 03:33N 48°43' W 123°24'2 1.0
2016-Jul-20 01:33N 48°41' W 123°24'1110.9
2016-Jul-20 00:34N 48°52' W 123°19'1312.9
2016-Jul-19 23:33N 49°04' W 123°20'1212.2
2016-Jul-19 22:33N 49°09' W 123°03'0 0.2
2016-Jul-19 21:33N 49°09' W 123°02'1 1.5
2016-Jul-19 20:33N 49°08' W 123°04'1010.5
2016-Jul-19 19:33N 49°06' W 123°20'1312.6
2016-Jul-19 18:33N 49°10' W 123°38'1211.8
2016-Jul-19 17:33N 49°10' W 123°56'0 0.1
2016-Jul-19 16:33N 49°10' W 123°56'0 0.0
2016-Jul-19 15:29N 49°10' W 123°56'0 0.0
2016-Jul-19 14:27N 49°10' W 123°56'0 0.0
2016-Jul-19 13:33N 49°10' W 123°56'0 0.0
2016-Jul-19 12:33N 49°10' W 123°56'0 0.0
2016-Jul-19 11:33N 49°10' W 123°56'5 5.4
2016-Jul-19 10:33N 49°14' W 123°50'1414.2
2016-Jul-19 09:33N 49°08' W 123°30'1312.9
2016-Jul-19 08:33N 49°07' W 123°10'6 5.6
2016-Jul-19 07:34N 49°09' W 123°02'18 5.9
2016-Jul-19 04:34N 48°54' W 123°18'1111.1
2016-Jul-19 03:33N 48°44' W 123°24'3 1.3
2016-Jul-19 01:26N 48°41' W 123°24'1010.8
2016-Jul-19 00:34N 48°51' W 123°21'1212.0
2016-Jul-18 23:33N 49°03' W 123°19'1010.5
2016-Jul-18 22:34N 49°07' W 123°05'2 2.1
2016-Jul-18 21:33N 49°09' W 123°02'0 0.0
2016-Jul-18 20:33N 49°09' W 123°02'0 0.0
2016-Jul-18 19:34N 49°09' W 123°02'0 0.0
2016-Jul-18 18:33N 49°09' W 123°02'0 0.0
2016-Jul-18 17:33N 49°09' W 123°02'0 0.0
2016-Jul-18 16:33N 49°09' W 123°02'0 0.0
2016-Jul-18 15:33N 49°09' W 123°02'  
Track history (hours):
 
Tides and Currents Weather Stations Pressure Air Temp Water Temp Dewpoint Dewpoint Depression Visibility Wind Speed Wind Dir Waves Ship Positions

Carrier Princess

Last reported at 2016-Jul-28 15:33 UTC. Time now 2016-Jul-28 16:30 UTC.
Position N 49°10' W 123°56'.

Length 112 m; draft 3 m.

Type: Cargo ship. MMSI: 316003656.

Date/timePositionNaut miles runAvg speedWind from/ knotsBaromVisibWave heightAir tempDewpointWater temp
2016-Jul-28 15:33N 49°10' W 123°56'0 0.0
2016-Jul-28 14:33N 49°10' W 123°56'0 0.0
2016-Jul-28 13:30N 49°10' W 123°56'0 0.0
2016-Jul-28 12:33N 49°10' W 123°56'0 0.0
2016-Jul-28 11:32N 49°10' W 123°56'7 6.9
2016-Jul-28 10:33N 49°13' W 123°47'1312.7
2016-Jul-28 09:32N 49°09' W 123°28'1211.8
2016-Jul-28 08:33N 49°07' W 123°11'6 5.4
2016-Jul-28 07:27N 49°09' W 123°02'0 0.0
2016-Jul-28 06:31N 49°09' W 123°02'9 8.6
2016-Jul-28 05:32N 49°07' W 123°15'1110.8
2016-Jul-28 04:30N 48°57' W 123°17'1412.1
2016-Jul-28 03:22N 48°44' W 123°24'2 1.0
2016-Jul-28 01:22N 48°42' W 123°24'1011.0
2016-Jul-28 00:25N 48°52' W 123°19'1314.4
2016-Jul-27 23:29N 49°05' W 123°19'1212.5
2016-Jul-27 22:33N 49°09' W 123°02'0 0.2
2016-Jul-27 21:33N 49°09' W 123°02'2 1.9
2016-Jul-27 20:33N 49°07' W 123°04'1110.9
2016-Jul-27 19:34N 49°06' W 123°21'1211.8
2016-Jul-27 18:34N 49°11' W 123°38'1111.1
2016-Jul-27 17:34N 49°10' W 123°55'1 0.7
2016-Jul-27 16:33N 49°10' W 123°56'0 0.0
2016-Jul-27 15:33N 49°10' W 123°56'0 0.0
2016-Jul-27 14:33N 49°10' W 123°56'0 0.0
2016-Jul-27 13:33N 49°10' W 123°56'0 0.0
2016-Jul-27 12:33N 49°10' W 123°56'0 0.0
2016-Jul-27 11:34N 49°10' W 123°56'7 7.2
2016-Jul-27 10:33N 49°13' W 123°46'1312.7
2016-Jul-27 09:33N 49°10' W 123°27'1312.7
2016-Jul-27 08:34N 49°06' W 123°09'5 4.7
2016-Jul-27 07:34N 49°09' W 123°02'0 0.1
2016-Jul-27 06:34N 49°09' W 123°02'1111.4
2016-Jul-27 05:33N 49°06' W 123°19'1211.6
2016-Jul-27 04:33N 48°54' W 123°18'1110.8
2016-Jul-27 03:33N 48°44' W 123°23'3 1.3
2016-Jul-27 01:28N 48°41' W 123°24'910.3
2016-Jul-27 00:33N 48°50' W 123°21'1312.6
2016-Jul-26 23:33N 49°03' W 123°19'1212.1
2016-Jul-26 22:34N 49°09' W 123°02'0 0.2
2016-Jul-26 21:33N 49°09' W 123°02'2 2.0
2016-Jul-26 20:33N 49°07' W 123°04'1110.5
2016-Jul-26 19:33N 49°06' W 123°20'1212.0
2016-Jul-26 18:33N 49°11' W 123°37'1111.1
2016-Jul-26 17:34N 49°10' W 123°54'1 1.0
2016-Jul-26 16:33N 49°10' W 123°56'0 0.0
2016-Jul-26 15:30N 49°10' W 123°56'0 0.0
2016-Jul-26 14:31N 49°10' W 123°56'0 0.0
2016-Jul-26 13:32N 49°10' W 123°56'0 0.0
2016-Jul-26 12:33N 49°10' W 123°56'0 0.0
2016-Jul-26 11:33N 49°10' W 123°56'6 5.6
2016-Jul-26 10:33N 49°13' W 123°49'1413.7
2016-Jul-26 09:33N 49°09' W 123°29'1413.6
2016-Jul-26 08:33N 49°07' W 123°09'5 4.8
2016-Jul-26 07:33N 49°09' W 123°02'0 0.1
2016-Jul-26 06:34N 49°09' W 123°02'1111.3
2016-Jul-26 05:34N 49°06' W 123°19'1211.9
2016-Jul-26 04:33N 48°54' W 123°18'1110.8
2016-Jul-26 03:34N 48°44' W 123°24'3 1.2
2016-Jul-26 01:26N 48°41' W 123°24'1011.9
2016-Jul-26 00:33N 48°52' W 123°21'1211.7
2016-Jul-25 23:33N 49°03' W 123°19'1212.3
2016-Jul-25 22:34N 49°09' W 123°02'0 0.1
2016-Jul-25 21:33N 49°09' W 123°02'0 0.0
2016-Jul-25 20:34N 49°09' W 123°02'0 0.0
2016-Jul-25 19:34N 49°09' W 123°02'0 0.0
2016-Jul-25 18:34N 49°09' W 123°02'0 0.0
2016-Jul-25 17:34N 49°09' W 123°02'0 0.0
2016-Jul-25 16:34N 49°09' W 123°02'0 0.0
2016-Jul-25 15:34N 49°09' W 123°02'0 0.0
2016-Jul-25 14:34N 49°09' W 123°02'0 0.0
2016-Jul-25 13:34N 49°09' W 123°02'0 0.0
2016-Jul-25 12:34N 49°09' W 123°02'0 0.0
2016-Jul-25 11:34N 49°09' W 123°02'0 0.0
2016-Jul-25 10:33N 49°09' W 123°02'0 0.0
2016-Jul-25 09:34N 49°09' W 123°02'0 0.0
2016-Jul-25 08:34N 49°09' W 123°02'0 0.0
2016-Jul-25 07:34N 49°09' W 123°02'0 0.0
2016-Jul-25 06:34N 49°09' W 123°02'0 0.0
2016-Jul-25 05:33N 49°09' W 123°02'0 0.0
2016-Jul-25 04:33N 49°09' W 123°02'0 0.0
2016-Jul-25 03:34N 49°09' W 123°02'0 0.0
2016-Jul-25 02:33N 49°09' W 123°02'0 0.0
2016-Jul-25 01:33N 49°09' W 123°02'0 0.0
2016-Jul-25 00:33N 49°09' W 123°02'0 0.0
2016-Jul-24 23:34N 49°09' W 123°02'0 0.0
2016-Jul-24 22:34N 49°09' W 123°02'0 0.0
2016-Jul-24 21:33N 49°09' W 123°02'0 0.0
2016-Jul-24 20:33N 49°09' W 123°02'0 0.0
2016-Jul-24 19:34N 49°09' W 123°02'0 0.0
2016-Jul-24 18:34N 49°09' W 123°02'0 0.0
2016-Jul-24 17:33N 49°09' W 123°02'0 0.0
2016-Jul-24 16:34N 49°09' W 123°02'0 0.0
2016-Jul-24 15:34N 49°09' W 123°02'1 1.4
2016-Jul-24 14:34N 49°08' W 123°04'10 9.6
2016-Jul-24 13:34N 49°06' W 123°18'1010.0
2016-Jul-24 12:34N 49°09' W 123°33'10 9.9
2016-Jul-24 11:34N 49°13' W 123°47'6 5.0
2016-Jul-24 10:16N 49°10' W 123°56'0 0.0
2016-Jul-24 09:31N 49°10' W 123°56'3 2.9
2016-Jul-24 08:34N 49°12' W 123°53'1110.6
2016-Jul-24 07:33N 49°11' W 123°37'1111.1
2016-Jul-24 06:33N 49°07' W 123°21'1010.4
2016-Jul-24 05:33N 49°07' W 123°05'3 2.8
2016-Jul-24 04:34N 49°09' W 123°02'0 0.0
2016-Jul-24 03:33N 49°09' W 123°02'0 0.0
2016-Jul-24 02:34N 49°09' W 123°02'0 0.0
2016-Jul-24 01:33N 49°09' W 123°02'0 0.0
2016-Jul-24 00:34N 49°09' W 123°02'0 0.0
2016-Jul-23 23:34N 49°09' W 123°02'4 4.3
2016-Jul-23 22:33N 49°06' W 123°08'8 7.6
2016-Jul-23 21:33N 49°06' W 123°19'1110.5
2016-Jul-23 20:33N 49°10' W 123°34'1010.5
2016-Jul-23 19:33N 49°13' W 123°50'5 4.7
2016-Jul-23 18:31N 49°10' W 123°56'0 0.0
2016-Jul-23 17:33N 49°10' W 123°56'0 0.0
2016-Jul-23 16:31N 49°10' W 123°56'0 0.0
2016-Jul-23 15:33N 49°10' W 123°56'0 0.0
2016-Jul-23 14:33N 49°10' W 123°56'0 0.0
2016-Jul-23 13:26N 49°10' W 123°56'0 0.0
2016-Jul-23 12:33N 49°10' W 123°56'0 0.0
2016-Jul-23 11:22N 49°10' W 123°56'6 6.9
2016-Jul-23 10:33N 49°13' W 123°49'1313.0
2016-Jul-23 09:33N 49°09' W 123°30'1212.1
2016-Jul-23 08:33N 49°07' W 123°12'6 6.4
2016-Jul-23 07:33N 49°09' W 123°02'0 0.0
2016-Jul-23 06:33N 49°09' W 123°02'16 8.2
2016-Jul-23 04:34N 48°56' W 123°18'1110.7
2016-Jul-23 03:33N 48°46' W 123°22'5 2.2
2016-Jul-23 01:30N 48°41' W 123°24'1111.1
2016-Jul-23 00:33N 48°52' W 123°21'1211.7
2016-Jul-22 23:33N 49°03' W 123°19'1212.2
2016-Jul-22 22:33N 49°09' W 123°02'0 0.2
2016-Jul-22 21:33N 49°09' W 123°02'1 0.9
2016-Jul-22 20:33N 49°08' W 123°03'9 8.8
2016-Jul-22 19:33N 49°07' W 123°17'1414.2
2016-Jul-22 18:34N 49°11' W 123°38'1211.8
2016-Jul-22 17:33N 49°10' W 123°56'0 0.0
2016-Jul-22 16:33N 49°10' W 123°56'0 0.0
2016-Jul-22 15:25N 49°10' W 123°56'0 0.0
2016-Jul-22 14:33N 49°10' W 123°56'0 0.0
2016-Jul-22 13:33N 49°10' W 123°56'0 0.0
2016-Jul-22 12:32N 49°10' W 123°56'0 0.0
2016-Jul-22 11:33N 49°10' W 123°56'4 4.4
2016-Jul-22 10:34N 49°13' W 123°51'1413.6
2016-Jul-22 09:33N 49°10' W 123°31'1313.1
2016-Jul-22 08:33N 49°07' W 123°11'6 6.1
2016-Jul-22 07:33N 49°09' W 123°02'10 4.9
2016-Jul-22 05:33N 49°07' W 123°17'1313.3
2016-Jul-22 04:33N 48°53' W 123°18'1211.6
2016-Jul-22 03:32N 48°42' W 123°24'1 0.5
2016-Jul-22 01:33N 48°41' W 123°24'1111.3
2016-Jul-22 00:33N 48°52' W 123°19'1413.8
2016-Jul-21 23:34N 49°06' W 123°20'1212.1
2016-Jul-21 22:33N 49°09' W 123°02'0 0.0
2016-Jul-21 21:33N 49°09' W 123°02'1 0.8
2016-Jul-21 20:33N 49°08' W 123°03'10 9.7
2016-Jul-21 19:33N 49°06' W 123°18'1413.7
2016-Jul-21 18:31N 49°11' W 123°38'11 9.0
2016-Jul-21 17:16N 49°10' W 123°56'0 0.0
2016-Jul-21 13:33N 49°10' W 123°56'5 1.6
2016-Jul-21 10:32N 49°13' W 123°50'1413.4
2016-Jul-21 09:31N 49°08' W 123°31'1313.5
2016-Jul-21 08:33N 49°07' W 123°11'6 2.8
2016-Jul-21 06:28N 49°09' W 123°02'1111.4
2016-Jul-21 05:31N 49°06' W 123°18'1212.0
2016-Jul-21 04:32N 48°54' W 123°18'1212.0
2016-Jul-21 03:32N 48°43' W 123°24'2 0.8
2016-Jul-21 01:27N 48°41' W 123°24'1111.1
2016-Jul-21 00:30N 48°52' W 123°21'1212.4
2016-Jul-20 23:33N 49°03' W 123°19'1212.1
2016-Jul-20 22:34N 49°08' W 123°03'0 0.5
2016-Jul-20 21:33N 49°09' W 123°02'1 1.2
2016-Jul-20 20:33N 49°08' W 123°04'10 9.6
2016-Jul-20 19:34N 49°06' W 123°18'1313.1
2016-Jul-20 18:33N 49°11' W 123°37'1212.3
2016-Jul-20 17:33N 49°10' W 123°56'0 0.1
2016-Jul-20 16:32N 49°10' W 123°56'0 0.0
2016-Jul-20 14:14N 49°10' W 123°56'0 0.0
2016-Jul-20 13:33N 49°10' W 123°56'0 0.0
2016-Jul-20 12:33N 49°10' W 123°56'0 0.0
2016-Jul-20 11:33N 49°10' W 123°56'5 4.9
2016-Jul-20 10:33N 49°13' W 123°50'1313.5
2016-Jul-20 09:34N 49°10' W 123°30'1313.4
2016-Jul-20 08:33N 49°07' W 123°10'6 5.6
2016-Jul-20 07:33N 49°09' W 123°02'0 0.0
2016-Jul-20 06:34N 49°09' W 123°02'9 9.1
2016-Jul-20 05:33N 49°07' W 123°16'1212.4
2016-Jul-20 04:33N 48°55' W 123°18'1212.1
2016-Jul-20 03:33N 48°43' W 123°24'2 1.0
2016-Jul-20 01:33N 48°41' W 123°24'1110.9
2016-Jul-20 00:34N 48°52' W 123°19'1312.9
2016-Jul-19 23:33N 49°04' W 123°20'1212.2
2016-Jul-19 22:33N 49°09' W 123°03'0 0.2
2016-Jul-19 21:33N 49°09' W 123°02'1 1.5
2016-Jul-19 20:33N 49°08' W 123°04'1010.5
2016-Jul-19 19:33N 49°06' W 123°20'1312.6
2016-Jul-19 18:33N 49°10' W 123°38'1211.8
2016-Jul-19 17:33N 49°10' W 123°56'0 0.1
2016-Jul-19 16:33N 49°10' W 123°56'0 0.0
2016-Jul-19 15:29N 49°10' W 123°56'0 0.0
2016-Jul-19 14:27N 49°10' W 123°56'0 0.0
2016-Jul-19 13:33N 49°10' W 123°56'0 0.0
2016-Jul-19 12:33N 49°10' W 123°56'0 0.0
2016-Jul-19 11:33N 49°10' W 123°56'5 5.4
2016-Jul-19 10:33N 49°14' W 123°50'1414.2
2016-Jul-19 09:33N 49°08' W 123°30'1312.9
2016-Jul-19 08:33N 49°07' W 123°10'6 5.6
2016-Jul-19 07:34N 49°09' W 123°02'18 5.9
2016-Jul-19 04:34N 48°54' W 123°18'1111.1
2016-Jul-19 03:33N 48°44' W 123°24'3 1.3
2016-Jul-19 01:26N 48°41' W 123°24'1010.8
2016-Jul-19 00:34N 48°51' W 123°21'1212.0
2016-Jul-18 23:33N 49°03' W 123°19'1010.5
2016-Jul-18 22:34N 49°07' W 123°05'2 2.1
2016-Jul-18 21:33N 49°09' W 123°02'0 0.0
2016-Jul-18 20:33N 49°09' W 123°02'0 0.0
2016-Jul-18 19:34N 49°09' W 123°02'0 0.0
2016-Jul-18 18:33N 49°09' W 123°02'0 0.0
2016-Jul-18 17:33N 49°09' W 123°02'0 0.0
2016-Jul-18 16:33N 49°09' W 123°02'0 0.0
2016-Jul-18 15:33N 49°09' W 123°02'  

Dump ship's entire track history